sensor_id;sensor_type;location;lat;lon;timestamp;pressure;altitude;pressure_sealevel;temperature;humidity
19884;BME280;10104;50.732;10.174;2022-07-23T00:01:16;97910.66;;;22.55;65.91
19884;BME280;10104;50.732;10.174;2022-07-23T00:03:48;97911.22;;;22.57;66.49
19884;BME280;10104;50.732;10.174;2022-07-23T00:06:09;97910.38;;;22.52;66.00
19884;BME280;10104;50.732;10.174;2022-07-23T00:08:31;97903.38;;;22.56;65.97
19884;BME280;10104;50.732;10.174;2022-07-23T00:10:52;97898.78;;;22.51;66.35
19884;BME280;10104;50.732;10.174;2022-07-23T00:13:14;97902.28;;;22.52;66.56
19884;BME280;10104;50.732;10.174;2022-07-23T00:15:35;97905.50;;;22.49;67.15
19884;BME280;10104;50.732;10.174;2022-07-23T00:17:57;97899.31;;;22.53;65.86
19884;BME280;10104;50.732;10.174;2022-07-23T00:20:19;97910.34;;;22.47;66.80
19884;BME280;10104;50.732;10.174;2022-07-23T00:22:51;97905.50;;;22.49;67.37
19884;BME280;10104;50.732;10.174;2022-07-23T00:25:13;97901.72;;;22.45;67.51
19884;BME280;10104;50.732;10.174;2022-07-23T00:27:52;97902.50;;;22.40;67.95
19884;BME280;10104;50.732;10.174;2022-07-23T00:30:13;97896.06;;;22.46;67.25
19884;BME280;10104;50.732;10.174;2022-07-23T00:32:49;97898.19;;;22.39;68.13
19884;BME280;10104;50.732;10.174;2022-07-23T00:35:21;97890.34;;;22.33;68.68
19884;BME280;10104;50.732;10.174;2022-07-23T00:37:43;97878.19;;;22.35;67.80
19884;BME280;10104;50.732;10.174;2022-07-23T00:40:05;97870.66;;;22.37;68.07
19884;BME280;10104;50.732;10.174;2022-07-23T00:42:27;97871.97;;;22.30;68.16
19884;BME280;10104;50.732;10.174;2022-07-23T00:44:48;97864.91;;;22.24;68.81
19884;BME280;10104;50.732;10.174;2022-07-23T00:47:10;97855.47;;;22.21;69.00
19884;BME280;10104;50.732;10.174;2022-07-23T00:49:31;97847.09;;;22.23;68.56
19884;BME280;10104;50.732;10.174;2022-07-23T00:51:54;97850.91;;;22.27;67.67
19884;BME280;10104;50.732;10.174;2022-07-23T00:54:17;97858.44;;;22.19;68.77
19884;BME280;10104;50.732;10.174;2022-07-23T00:56:39;97858.19;;;22.21;68.16
19884;BME280;10104;50.732;10.174;2022-07-23T00:59:01;97867.34;;;22.25;68.25
19884;BME280;10104;50.732;10.174;2022-07-23T01:01:23;97867.59;;;22.18;67.96
19884;BME280;10104;50.732;10.174;2022-07-23T01:03:45;97858.13;;;22.11;68.33
19884;BME280;10104;50.732;10.174;2022-07-23T01:06:06;97854.31;;;22.02;69.24
19884;BME280;10104;50.732;10.174;2022-07-23T01:08:28;97856.47;;;22.05;69.61
19884;BME280;10104;50.732;10.174;2022-07-23T01:10:51;97864.31;;;22.06;69.12
19884;BME280;10104;50.732;10.174;2022-07-23T01:13:12;97858.88;;;21.96;69.33
19884;BME280;10104;50.732;10.174;2022-07-23T01:15:35;97844.25;;;21.92;69.81
19884;BME280;10104;50.732;10.174;2022-07-23T01:17:57;97839.19;;;21.96;69.34
19884;BME280;10104;50.732;10.174;2022-07-23T01:20:19;97832.63;;;21.92;69.62
19884;BME280;10104;50.732;10.174;2022-07-23T01:22:41;97834.53;;;21.91;69.25
19884;BME280;10104;50.732;10.174;2022-07-23T01:25:02;97837.75;;;21.88;69.39
19884;BME280;10104;50.732;10.174;2022-07-23T01:27:24;97834.81;;;21.90;69.00
19884;BME280;10104;50.732;10.174;2022-07-23T01:29:45;97836.94;;;21.88;68.58
19884;BME280;10104;50.732;10.174;2022-07-23T01:32:07;97823.41;;;21.77;69.28
19884;BME280;10104;50.732;10.174;2022-07-23T01:34:28;97823.13;;;21.74;70.04
19884;BME280;10104;50.732;10.174;2022-07-23T01:36:50;97829.13;;;21.91;70.20
19884;BME280;10104;50.732;10.174;2022-07-23T01:39:11;97843.41;;;21.87;70.15
19884;BME280;10104;50.732;10.174;2022-07-23T01:41:33;97919.09;;;21.75;72.84
19884;BME280;10104;50.732;10.174;2022-07-23T01:43:55;97973.78;;;21.38;74.16
19884;BME280;10104;50.732;10.174;2022-07-23T01:46:17;97993.97;;;21.14;75.92
19884;BME280;10104;50.732;10.174;2022-07-23T01:48:39;97976.16;;;20.86;77.20
19884;BME280;10104;50.732;10.174;2022-07-23T01:51:01;97939.47;;;20.80;86.07
19884;BME280;10104;50.732;10.174;2022-07-23T01:53:23;97807.09;;;20.56;89.44
19884;BME280;10104;50.732;10.174;2022-07-23T01:55:44;97820.19;;;20.48;90.32
19884;BME280;10104;50.732;10.174;2022-07-23T01:58:06;97814.44;;;20.17;93.04
19884;BME280;10104;50.732;10.174;2022-07-23T02:00:28;97815.56;;;20.00;93.66
19884;BME280;10104;50.732;10.174;2022-07-23T02:02:49;97833.19;;;19.91;95.24
19884;BME280;10104;50.732;10.174;2022-07-23T02:05:11;97835.44;;;19.77;99.90
19884;BME280;10104;50.732;10.174;2022-07-23T02:07:32;97826.06;;;19.79;98.68
19884;BME280;10104;50.732;10.174;2022-07-23T02:09:55;97810.56;;;19.87;98.84
19884;BME280;10104;50.732;10.174;2022-07-23T02:12:16;97814.44;;;19.96;99.41
19884;BME280;10104;50.732;10.174;2022-07-23T02:14:38;97829.94;;;20.10;96.60
19884;BME280;10104;50.732;10.174;2022-07-23T02:16:59;97847.81;;;20.00;98.18
19884;BME280;10104;50.732;10.174;2022-07-23T02:19:21;97846.22;;;19.99;97.44
19884;BME280;10104;50.732;10.174;2022-07-23T02:21:42;97836.00;;;20.01;97.05
19884;BME280;10104;50.732;10.174;2022-07-23T02:24:04;97834.66;;;19.98;98.63
19884;BME280;10104;50.732;10.174;2022-07-23T02:26:26;97834.75;;;20.08;95.30
19884;BME280;10104;50.732;10.174;2022-07-23T02:28:47;97816.19;;;20.07;95.55
19884;BME280;10104;50.732;10.174;2022-07-23T02:31:09;97817.47;;;19.99;97.63
19884;BME280;10104;50.732;10.174;2022-07-23T02:33:30;97827.44;;;20.04;96.86
19884;BME280;10104;50.732;10.174;2022-07-23T02:35:52;97841.38;;;20.01;98.78
19884;BME280;10104;50.732;10.174;2022-07-23T02:38:13;97839.84;;;20.05;97.73
19884;BME280;10104;50.732;10.174;2022-07-23T02:40:35;97837.44;;;20.08;98.44
19884;BME280;10104;50.732;10.174;2022-07-23T02:42:56;97832.94;;;20.14;97.53
19884;BME280;10104;50.732;10.174;2022-07-23T02:45:18;97829.50;;;20.18;97.86
19884;BME280;10104;50.732;10.174;2022-07-23T02:47:39;97841.63;;;20.21;98.08
19884;BME280;10104;50.732;10.174;2022-07-23T02:50:01;97847.88;;;20.27;97.04
19884;BME280;10104;50.732;10.174;2022-07-23T02:52:23;97851.66;;;20.47;94.52
19884;BME280;10104;50.732;10.174;2022-07-23T02:54:44;97850.34;;;20.28;95.61
19884;BME280;10104;50.732;10.174;2022-07-23T02:57:06;97858.25;;;20.35;95.12
19884;BME280;10104;50.732;10.174;2022-07-23T02:59:27;97832.69;;;20.37;94.68
19884;BME280;10104;50.732;10.174;2022-07-23T03:01:49;97815.25;;;20.18;98.35
19884;BME280;10104;50.732;10.174;2022-07-23T03:04:10;97808.19;;;20.12;98.54
19884;BME280;10104;50.732;10.174;2022-07-23T03:06:32;97820.00;;;20.11;98.31
19884;BME280;10104;50.732;10.174;2022-07-23T03:08:53;97828.31;;;20.09;97.42
19884;BME280;10104;50.732;10.174;2022-07-23T03:11:15;97818.47;;;19.93;98.38
19884;BME280;10104;50.732;10.174;2022-07-23T03:13:38;97808.69;;;19.87;99.71
19884;BME280;10104;50.732;10.174;2022-07-23T03:16:00;97818.63;;;19.87;99.65
19884;BME280;10104;50.732;10.174;2022-07-23T03:18:22;97815.84;;;19.82;100.00
19884;BME280;10104;50.732;10.174;2022-07-23T03:20:44;97815.31;;;19.79;100.00
19884;BME280;10104;50.732;10.174;2022-07-23T03:23:05;97826.88;;;19.80;100.00
19884;BME280;10104;50.732;10.174;2022-07-23T03:25:27;97827.75;;;19.86;100.00
19884;BME280;10104;50.732;10.174;2022-07-23T03:27:49;97837.00;;;19.95;98.82
19884;BME280;10104;50.732;10.174;2022-07-23T03:30:11;97851.22;;;20.12;96.82
19884;BME280;10104;50.732;10.174;2022-07-23T03:32:33;97874.97;;;19.98;97.72
19884;BME280;10104;50.732;10.174;2022-07-23T03:34:54;97883.38;;;19.85;98.38
19884;BME280;10104;50.732;10.174;2022-07-23T03:37:17;97900.38;;;19.91;97.54
19884;BME280;10104;50.732;10.174;2022-07-23T03:39:39;97884.50;;;19.89;98.35
19884;BME280;10104;50.732;10.174;2022-07-23T03:42:01;97884.31;;;19.74;99.46
19884;BME280;10104;50.732;10.174;2022-07-23T03:44:23;97879.16;;;19.72;100.00
19884;BME280;10104;50.732;10.174;2022-07-23T03:46:44;97875.44;;;19.73;99.79
19884;BME280;10104;50.732;10.174;2022-07-23T03:49:06;97878.28;;;19.67;100.00
19884;BME280;10104;50.732;10.174;2022-07-23T03:51:28;97873.31;;;19.59;100.00
19884;BME280;10104;50.732;10.174;2022-07-23T03:53:50;97870.69;;;19.64;100.00
19884;BME280;10104;50.732;10.174;2022-07-23T03:56:11;97874.19;;;19.64;99.79
19884;BME280;10104;50.732;10.174;2022-07-23T03:58:33;97873.66;;;19.62;100.00
19884;BME280;10104;50.732;10.174;2022-07-23T04:00:54;97866.78;;;19.71;99.32
19884;BME280;10104;50.732;10.174;2022-07-23T04:03:16;97877.88;;;19.58;100.00
19884;BME280;10104;50.732;10.174;2022-07-23T04:05:37;97875.59;;;19.67;99.42
19884;BME280;10104;50.732;10.174;2022-07-23T04:07:59;97874.19;;;19.81;98.17
19884;BME280;10104;50.732;10.174;2022-07-23T04:10:20;97888.78;;;19.68;98.80
19884;BME280;10104;50.732;10.174;2022-07-23T04:12:42;97890.31;;;19.64;98.28
19884;BME280;10104;50.732;10.174;2022-07-23T04:15:04;97889.94;;;19.56;98.34
19884;BME280;10104;50.732;10.174;2022-07-23T04:17:26;97872.66;;;19.52;99.23
19884;BME280;10104;50.732;10.174;2022-07-23T04:19:47;97880.25;;;19.55;98.86
19884;BME280;10104;50.732;10.174;2022-07-23T04:22:10;97893.34;;;19.51;99.54
19884;BME280;10104;50.732;10.174;2022-07-23T04:24:32;97893.84;;;19.48;99.01
19884;BME280;10104;50.732;10.174;2022-07-23T04:26:54;97893.28;;;19.46;99.52
19884;BME280;10104;50.732;10.174;2022-07-23T04:29:15;97897.41;;;19.37;100.00
19884;BME280;10104;50.732;10.174;2022-07-23T04:31:37;97885.34;;;19.39;100.00
19884;BME280;10104;50.732;10.174;2022-07-23T04:33:59;97899.47;;;19.47;100.00
19884;BME280;10104;50.732;10.174;2022-07-23T04:36:20;97891.28;;;19.42;100.00
19884;BME280;10104;50.732;10.174;2022-07-23T04:38:42;97893.16;;;19.41;100.00
19884;BME280;10104;50.732;10.174;2022-07-23T04:41:03;97887.13;;;19.34;100.00
19884;BME280;10104;50.732;10.174;2022-07-23T04:43:25;97889.34;;;19.37;99.90
19884;BME280;10104;50.732;10.174;2022-07-23T04:45:46;97889.66;;;19.40;99.87
19884;BME280;10104;50.732;10.174;2022-07-23T04:48:08;97901.31;;;19.29;100.00
19884;BME280;10104;50.732;10.174;2022-07-23T04:50:30;97893.31;;;19.34;100.00
19884;BME280;10104;50.732;10.174;2022-07-23T04:52:52;97902.78;;;19.37;100.00
19884;BME280;10104;50.732;10.174;2022-07-23T04:55:13;97905.84;;;19.29;100.00
19884;BME280;10104;50.732;10.174;2022-07-23T04:57:35;97900.41;;;19.40;100.00
19884;BME280;10104;50.732;10.174;2022-07-23T04:59:57;97908.22;;;19.42;99.76
19884;BME280;10104;50.732;10.174;2022-07-23T05:02:18;97914.88;;;19.39;100.00
19884;BME280;10104;50.732;10.174;2022-07-23T05:04:40;97904.97;;;19.40;99.20
19884;BME280;10104;50.732;10.174;2022-07-23T05:07:02;97909.34;;;19.29;100.00
19884;BME280;10104;50.732;10.174;2022-07-23T05:09:24;97917.19;;;19.31;100.00
19884;BME280;10104;50.732;10.174;2022-07-23T05:11:45;97917.56;;;19.23;99.70
19884;BME280;10104;50.732;10.174;2022-07-23T05:14:07;97921.88;;;19.24;100.00
19884;BME280;10104;50.732;10.174;2022-07-23T05:16:28;97929.94;;;19.24;100.00
19884;BME280;10104;50.732;10.174;2022-07-23T05:18:50;97929.28;;;19.17;100.00
19884;BME280;10104;50.732;10.174;2022-07-23T05:21:11;97926.59;;;19.17;100.00
19884;BME280;10104;50.732;10.174;2022-07-23T05:23:33;97933.09;;;19.21;100.00
19884;BME280;10104;50.732;10.174;2022-07-23T05:25:55;97937.09;;;19.18;100.00
19884;BME280;10104;50.732;10.174;2022-07-23T05:28:16;97929.94;;;19.24;100.00
19884;BME280;10104;50.732;10.174;2022-07-23T05:30:42;97932.28;;;19.20;100.00
19884;BME280;10104;50.732;10.174;2022-07-23T05:33:04;97924.50;;;19.19;100.00
19884;BME280;10104;50.732;10.174;2022-07-23T05:35:26;97922.34;;;19.21;100.00
19884;BME280;10104;50.732;10.174;2022-07-23T05:37:47;97926.75;;;19.27;100.00
19884;BME280;10104;50.732;10.174;2022-07-23T05:40:10;97936.38;;;19.39;99.38
19884;BME280;10104;50.732;10.174;2022-07-23T05:42:31;97934.41;;;19.35;100.00
19884;BME280;10104;50.732;10.174;2022-07-23T05:44:53;97930.06;;;19.46;100.00
19884;BME280;10104;50.732;10.174;2022-07-23T05:47:14;97928.84;;;19.53;100.00
19884;BME280;10104;50.732;10.174;2022-07-23T05:49:37;97923.53;;;19.58;99.33
19884;BME280;10104;50.732;10.174;2022-07-23T05:52:04;97935.59;;;19.72;97.91
19884;BME280;10104;50.732;10.174;2022-07-23T05:54:25;97940.09;;;19.67;98.26
19884;BME280;10104;50.732;10.174;2022-07-23T05:56:47;97945.13;;;19.80;97.23
19884;BME280;10104;50.732;10.174;2022-07-23T05:59:08;97941.22;;;19.71;96.35
19884;BME280;10104;50.732;10.174;2022-07-23T06:01:30;97931.94;;;19.78;96.40
19884;BME280;10104;50.732;10.174;2022-07-23T06:03:52;97929.16;;;19.73;97.17
19884;BME280;10104;50.732;10.174;2022-07-23T06:06:13;97937.63;;;19.82;97.34
19884;BME280;10104;50.732;10.174;2022-07-23T06:08:35;97934.50;;;19.90;97.08
19884;BME280;10104;50.732;10.174;2022-07-23T06:10:57;97937.19;;;19.90;97.03
19884;BME280;10104;50.732;10.174;2022-07-23T06:13:18;97939.91;;;19.90;97.04
19884;BME280;10104;50.732;10.174;2022-07-23T06:15:40;97941.28;;;19.93;97.20
19884;BME280;10104;50.732;10.174;2022-07-23T06:18:02;97949.56;;;20.08;96.03
19884;BME280;10104;50.732;10.174;2022-07-23T06:20:23;97949.25;;;20.04;96.38
19884;BME280;10104;50.732;10.174;2022-07-23T06:22:45;97942.19;;;20.20;95.74
19884;BME280;10104;50.732;10.174;2022-07-23T06:25:07;97940.25;;;20.32;95.27
19884;BME280;10104;50.732;10.174;2022-07-23T06:27:38;97947.19;;;20.72;93.04
19884;BME280;10104;50.732;10.174;2022-07-23T06:30:00;97951.06;;;20.59;93.21
19884;BME280;10104;50.732;10.174;2022-07-23T06:32:21;97941.44;;;20.63;93.46
19884;BME280;10104;50.732;10.174;2022-07-23T06:34:43;97946.06;;;20.68;91.15
19884;BME280;10104;50.732;10.174;2022-07-23T06:37:09;97946.13;;;20.73;89.84
19884;BME280;10104;50.732;10.174;2022-07-23T06:39:33;97953.16;;;20.74;90.13
19884;BME280;10104;50.732;10.174;2022-07-23T06:41:54;97953.06;;;20.69;90.52
19884;BME280;10104;50.732;10.174;2022-07-23T06:44:21;97966.59;;;20.52;91.56
19884;BME280;10104;50.732;10.174;2022-07-23T06:46:42;97963.41;;;20.55;92.12
19884;BME280;10104;50.732;10.174;2022-07-23T06:49:04;97961.50;;;20.55;91.04
19884;BME280;10104;50.732;10.174;2022-07-23T06:51:27;97963.03;;;20.46;91.53
19884;BME280;10104;50.732;10.174;2022-07-23T06:53:49;97970.22;;;20.41;92.07
19884;BME280;10104;50.732;10.174;2022-07-23T06:56:10;97972.41;;;20.44;92.29
19884;BME280;10104;50.732;10.174;2022-07-23T06:58:32;97974.41;;;20.53;92.41
19884;BME280;10104;50.732;10.174;2022-07-23T07:00:54;97955.84;;;20.52;93.01
19884;BME280;10104;50.732;10.174;2022-07-23T07:03:16;97963.47;;;20.60;93.32
19884;BME280;10104;50.732;10.174;2022-07-23T07:05:38;97970.84;;;20.70;92.42
19884;BME280;10104;50.732;10.174;2022-07-23T07:08:01;97976.91;;;20.82;90.78
19884;BME280;10104;50.732;10.174;2022-07-23T07:10:23;97991.91;;;20.99;89.34
19884;BME280;10104;50.732;10.174;2022-07-23T07:12:44;97981.72;;;21.02;88.57
19884;BME280;10104;50.732;10.174;2022-07-23T07:15:06;97983.69;;;21.11;88.34
19884;BME280;10104;50.732;10.174;2022-07-23T07:17:28;97990.56;;;20.97;88.97
19884;BME280;10104;50.732;10.174;2022-07-23T07:19:49;97992.09;;;20.93;89.95
19884;BME280;10104;50.732;10.174;2022-07-23T07:22:11;97997.88;;;21.02;89.43
19884;BME280;10104;50.732;10.174;2022-07-23T07:24:32;97995.75;;;20.82;90.95
19884;BME280;10104;50.732;10.174;2022-07-23T07:26:58;97998.84;;;20.90;90.28
19884;BME280;10104;50.732;10.174;2022-07-23T07:29:20;97999.59;;;20.86;90.63
19884;BME280;10104;50.732;10.174;2022-07-23T07:31:41;98007.72;;;20.69;90.40
19884;BME280;10104;50.732;10.174;2022-07-23T07:34:03;98010.09;;;20.66;90.51
19884;BME280;10104;50.732;10.174;2022-07-23T07:36:27;98017.22;;;20.77;90.10
19884;BME280;10104;50.732;10.174;2022-07-23T07:38:49;98029.44;;;20.84;91.09
19884;BME280;10104;50.732;10.174;2022-07-23T07:41:10;98025.03;;;21.00;89.49
19884;BME280;10104;50.732;10.174;2022-07-23T07:43:33;98024.38;;;21.10;89.10
19884;BME280;10104;50.732;10.174;2022-07-23T07:45:55;98037.16;;;21.19;88.19
19884;BME280;10104;50.732;10.174;2022-07-23T07:48:16;98038.66;;;21.10;88.88
19884;BME280;10104;50.732;10.174;2022-07-23T07:50:39;98043.75;;;21.12;88.16
19884;BME280;10104;50.732;10.174;2022-07-23T07:53:01;98037.06;;;21.14;88.41
19884;BME280;10104;50.732;10.174;2022-07-23T07:55:23;98045.75;;;21.16;88.04
19884;BME280;10104;50.732;10.174;2022-07-23T07:57:45;98050.03;;;21.17;88.44
19884;BME280;10104;50.732;10.174;2022-07-23T08:00:10;98039.75;;;21.14;88.48
19884;BME280;10104;50.732;10.174;2022-07-23T08:02:46;98042.47;;;21.14;87.92
19884;BME280;10104;50.732;10.174;2022-07-23T08:05:10;98046.97;;;21.09;86.82
19884;BME280;10104;50.732;10.174;2022-07-23T08:07:32;98052.19;;;21.15;87.58
19884;BME280;10104;50.732;10.174;2022-07-23T08:09:53;98055.75;;;21.21;87.52
19884;BME280;10104;50.732;10.174;2022-07-23T08:12:15;98053.72;;;21.11;87.67
19884;BME280;10104;50.732;10.174;2022-07-23T08:14:36;98054.19;;;21.03;87.40
19884;BME280;10104;50.732;10.174;2022-07-23T08:16:58;98064.97;;;21.25;87.18
19884;BME280;10104;50.732;10.174;2022-07-23T08:19:35;98059.44;;;21.36;86.05
19884;BME280;10104;50.732;10.174;2022-07-23T08:21:57;98071.78;;;21.32;85.86
19884;BME280;10104;50.732;10.174;2022-07-23T08:24:18;98068.19;;;21.49;86.45
19884;BME280;10104;50.732;10.174;2022-07-23T08:26:40;98069.56;;;21.51;87.94
19884;BME280;10104;50.732;10.174;2022-07-23T08:29:02;98076.28;;;21.75;87.92
19884;BME280;10104;50.732;10.174;2022-07-23T08:31:23;98077.44;;;21.85;85.63
19884;BME280;10104;50.732;10.174;2022-07-23T08:33:45;98079.72;;;21.98;84.25
19884;BME280;10104;50.732;10.174;2022-07-23T08:36:07;98092.91;;;21.94;83.07
19884;BME280;10104;50.732;10.174;2022-07-23T08:38:28;98097.00;;;21.97;83.77
19884;BME280;10104;50.732;10.174;2022-07-23T08:40:52;98099.59;;;21.92;82.26
19884;BME280;10104;50.732;10.174;2022-07-23T08:43:19;98091.91;;;22.00;83.20
19884;BME280;10104;50.732;10.174;2022-07-23T08:45:44;98083.81;;;22.00;83.00
19884;BME280;10104;50.732;10.174;2022-07-23T08:48:08;98101.22;;;21.93;82.53
19884;BME280;10104;50.732;10.174;2022-07-23T08:50:32;98101.69;;;22.11;82.08
19884;BME280;10104;50.732;10.174;2022-07-23T08:52:58;98098.47;;;22.09;82.55
19884;BME280;10104;50.732;10.174;2022-07-23T08:55:21;98105.56;;;21.94;82.90
19884;BME280;10104;50.732;10.174;2022-07-23T08:57:44;98116.50;;;21.82;83.44
19884;BME280;10104;50.732;10.174;2022-07-23T09:00:09;98114.19;;;21.91;82.76
19884;BME280;10104;50.732;10.174;2022-07-23T09:02:30;98103.47;;;21.96;82.15
19884;BME280;10104;50.732;10.174;2022-07-23T09:04:52;98109.56;;;21.91;82.60
19884;BME280;10104;50.732;10.174;2022-07-23T09:07:14;98112.97;;;22.03;81.28
19884;BME280;10104;50.732;10.174;2022-07-23T09:09:36;98108.25;;;21.94;82.32
19884;BME280;10104;50.732;10.174;2022-07-23T09:12:05;98116.25;;;22.10;82.18
19884;BME280;10104;50.732;10.174;2022-07-23T09:14:39;98111.25;;;22.24;82.54
19884;BME280;10104;50.732;10.174;2022-07-23T09:17:11;98107.38;;;22.47;80.13
19884;BME280;10104;50.732;10.174;2022-07-23T09:19:33;98110.19;;;22.62;78.77
19884;BME280;10104;50.732;10.174;2022-07-23T09:21:55;98113.56;;;22.79;76.41
19884;BME280;10104;50.732;10.174;2022-07-23T09:24:37;98106.59;;;22.88;77.85
19884;BME280;10104;50.732;10.174;2022-07-23T09:26:58;98095.41;;;23.27;75.48
19884;BME280;10104;50.732;10.174;2022-07-23T09:29:25;98099.88;;;23.58;76.03
19884;BME280;10104;50.732;10.174;2022-07-23T09:31:55;98089.91;;;23.74;74.07
19884;BME280;10104;50.732;10.174;2022-07-23T09:34:22;98094.00;;;24.02;72.68
19884;BME280;10104;50.732;10.174;2022-07-23T09:36:46;98089.69;;;24.01;71.50
19884;BME280;10104;50.732;10.174;2022-07-23T09:39:08;98104.06;;;24.42;70.80
19884;BME280;10104;50.732;10.174;2022-07-23T09:41:52;98103.47;;;24.14;70.21
19884;BME280;10104;50.732;10.174;2022-07-23T09:44:19;98109.19;;;24.48;70.61
19884;BME280;10104;50.732;10.174;2022-07-23T09:46:49;98108.91;;;24.45;70.51
19884;BME280;10104;50.732;10.174;2022-07-23T09:49:29;98102.38;;;24.76;68.54
19884;BME280;10104;50.732;10.174;2022-07-23T09:51:53;98108.31;;;24.83;69.33
19884;BME280;10104;50.732;10.174;2022-07-23T09:54:24;98106.94;;;25.11;68.92
19884;BME280;10104;50.732;10.174;2022-07-23T09:56:48;98103.25;;;25.46;64.97
19884;BME280;10104;50.732;10.174;2022-07-23T09:59:09;98106.59;;;25.28;63.85
19884;BME280;10104;50.732;10.174;2022-07-23T10:01:33;98103.56;;;25.39;63.11
19884;BME280;10104;50.732;10.174;2022-07-23T10:03:55;98091.81;;;25.59;63.41
19884;BME280;10104;50.732;10.174;2022-07-23T10:06:17;98097.44;;;25.68;64.10
19884;BME280;10104;50.732;10.174;2022-07-23T10:08:44;98101.09;;;25.97;60.71
19884;BME280;10104;50.732;10.174;2022-07-23T10:11:10;98108.53;;;25.76;61.41
19884;BME280;10104;50.732;10.174;2022-07-23T10:13:33;98120.28;;;25.67;61.58
19884;BME280;10104;50.732;10.174;2022-07-23T10:15:55;98122.16;;;25.56;61.79
19884;BME280;10104;50.732;10.174;2022-07-23T10:18:17;98118.44;;;25.47;62.00
19884;BME280;10104;50.732;10.174;2022-07-23T10:20:39;98105.38;;;25.49;62.36
19884;BME280;10104;50.732;10.174;2022-07-23T10:23:11;98097.44;;;25.68;63.16
19884;BME280;10104;50.732;10.174;2022-07-23T10:25:46;98097.88;;;25.90;60.53
19884;BME280;10104;50.732;10.174;2022-07-23T10:37:17;98100.88;;;26.28;57.89
19884;BME280;10104;50.732;10.174;2022-07-23T10:39:45;98096.88;;;26.49;58.14
19884;BME280;10104;50.732;10.174;2022-07-23T10:42:09;98103.13;;;26.49;55.84
19884;BME280;10104;50.732;10.174;2022-07-23T10:44:38;98095.06;;;26.68;56.73
19884;BME280;10104;50.732;10.174;2022-07-23T10:47:03;98102.16;;;26.93;55.67
19884;BME280;10104;50.732;10.174;2022-07-23T10:49:44;98100.53;;;26.92;53.33
19884;BME280;10104;50.732;10.174;2022-07-23T10:52:24;98095.63;;;27.18;53.01
19884;BME280;10104;50.732;10.174;2022-07-23T10:54:52;98095.00;;;27.26;49.39
19884;BME280;10104;50.732;10.174;2022-07-23T10:57:14;98098.38;;;27.36;50.00
19884;BME280;10104;50.732;10.174;2022-07-23T11:02:32;98087.75;;;27.40;50.30
19884;BME280;10104;50.732;10.174;2022-07-23T11:04:59;98088.59;;;27.78;52.40
19884;BME280;10104;50.732;10.174;2022-07-23T11:07:22;98089.75;;;27.53;48.80
19884;BME280;10104;50.732;10.174;2022-07-23T11:09:43;98097.88;;;27.58;48.02
19884;BME280;10104;50.732;10.174;2022-07-23T11:15:10;98090.16;;;27.42;51.19
19884;BME280;10104;50.732;10.174;2022-07-23T11:17:39;98087.03;;;27.53;48.56
19884;BME280;10104;50.732;10.174;2022-07-23T11:22:47;98081.59;;;27.91;48.52
19884;BME280;10104;50.732;10.174;2022-07-23T11:25:12;98084.19;;;28.01;47.97
19884;BME280;10104;50.732;10.174;2022-07-23T11:30:00;98084.53;;;28.32;47.20
19884;BME280;10104;50.732;10.174;2022-07-23T11:32:29;98081.38;;;28.25;45.58
19884;BME280;10104;50.732;10.174;2022-07-23T11:34:52;98075.34;;;28.41;45.84
19884;BME280;10104;50.732;10.174;2022-07-23T11:39:56;98077.69;;;27.97;46.49
19884;BME280;10104;50.732;10.174;2022-07-23T11:42:18;98076.00;;;28.01;45.87
19884;BME280;10104;50.732;10.174;2022-07-23T11:44:40;98072.97;;;28.02;46.12
19884;BME280;10104;50.732;10.174;2022-07-23T11:47:10;98071.19;;;28.30;44.92
19884;BME280;10104;50.732;10.174;2022-07-23T11:49:33;98067.19;;;28.41;44.73
19884;BME280;10104;50.732;10.174;2022-07-23T11:52:10;98069.00;;;28.92;42.95
19884;BME280;10104;50.732;10.174;2022-07-23T11:54:34;98062.22;;;29.03;44.41
19884;BME280;10104;50.732;10.174;2022-07-23T11:57:01;98061.72;;;29.42;42.36
19884;BME280;10104;50.732;10.174;2022-07-23T11:59:24;98057.78;;;29.34;43.40
19884;BME280;10104;50.732;10.174;2022-07-23T12:02:01;98053.81;;;29.54;42.78
19884;BME280;10104;50.732;10.174;2022-07-23T12:04:22;98052.41;;;29.79;42.87
19884;BME280;10104;50.732;10.174;2022-07-23T12:06:44;98058.22;;;30.00;41.17
19884;BME280;10104;50.732;10.174;2022-07-23T12:09:06;98054.94;;;30.11;41.11
19884;BME280;10104;50.732;10.174;2022-07-23T12:11:28;98058.97;;;30.14;40.60
19884;BME280;10104;50.732;10.174;2022-07-23T12:13:57;98055.75;;;29.76;40.13
19884;BME280;10104;50.732;10.174;2022-07-23T12:16:19;98042.06;;;30.12;40.94
19884;BME280;10104;50.732;10.174;2022-07-23T12:18:40;98037.09;;;30.14;41.19
19884;BME280;10104;50.732;10.174;2022-07-23T12:21:04;98042.69;;;30.53;41.13
19884;BME280;10104;50.732;10.174;2022-07-23T12:23:26;98036.31;;;30.67;39.11
19884;BME280;10104;50.732;10.174;2022-07-23T12:25:50;98037.50;;;31.22;39.44
19884;BME280;10104;50.732;10.174;2022-07-23T12:28:18;98041.75;;;31.89;38.59
19884;BME280;10104;50.732;10.174;2022-07-23T12:30:51;98033.09;;;32.59;35.69
19884;BME280;10104;50.732;10.174;2022-07-23T12:33:39;98033.16;;;33.26;35.56
19884;BME280;10104;50.732;10.174;2022-07-23T12:36:04;98034.78;;;33.90;34.49
19884;BME280;10104;50.732;10.174;2022-07-23T12:38:27;98028.25;;;34.36;33.26
19884;BME280;10104;50.732;10.174;2022-07-23T12:40:55;98021.13;;;34.80;33.51
19884;BME280;10104;50.732;10.174;2022-07-23T12:43:30;98023.13;;;35.44;31.66
19884;BME280;10104;50.732;10.174;2022-07-23T12:46:02;98023.63;;;34.97;32.02
19884;BME280;10104;50.732;10.174;2022-07-23T12:48:26;98022.47;;;35.47;32.01
19884;BME280;10104;50.732;10.174;2022-07-23T12:50:52;98025.34;;;35.90;30.09